sensor_id;sensor_type;location;lat;lon;timestamp;temperature;humidity
24412;DHT22;12544;46.760;15.942;2024-03-23T00:53:11;11.10;99.90
24412;DHT22;12544;46.760;15.942;2024-03-23T00:55:36;11.10;99.90
24412;DHT22;12544;46.760;15.942;2024-03-23T00:58:02;11.10;99.90
24412;DHT22;12544;46.760;15.942;2024-03-23T01:00:27;11.10;99.90
24412;DHT22;12544;46.760;15.942;2024-03-23T01:06:15;11.10;99.90
24412;DHT22;12544;46.760;15.942;2024-03-23T01:08:41;11.10;99.90
24412;DHT22;12544;46.760;15.942;2024-03-23T01:11:07;11.00;99.90
24412;DHT22;12544;46.760;15.942;2024-03-23T01:13:33;11.00;99.90
24412;DHT22;12544;46.760;15.942;2024-03-23T01:15:59;10.90;99.90
24412;DHT22;12544;46.760;15.942;2024-03-23T01:18:24;10.90;99.90
24412;DHT22;12544;46.760;15.942;2024-03-23T01:20:51;10.90;99.90
24412;DHT22;12544;46.760;15.942;2024-03-23T01:23:17;10.90;99.90
24412;DHT22;12544;46.760;15.942;2024-03-23T01:25:43;11.00;99.90
24412;DHT22;12544;46.760;15.942;2024-03-23T01:28:08;11.00;99.90
24412;DHT22;12544;46.760;15.942;2024-03-23T01:30:35;11.00;99.90
24412;DHT22;12544;46.760;15.942;2024-03-23T01:33:01;11.00;99.90
24412;DHT22;12544;46.760;15.942;2024-03-23T01:35:26;11.00;99.90
24412;DHT22;12544;46.760;15.942;2024-03-23T01:37:52;11.00;99.90
24412;DHT22;12544;46.760;15.942;2024-03-23T01:40:19;11.00;99.90
24412;DHT22;12544;46.760;15.942;2024-03-23T01:43:06;11.00;99.90
24412;DHT22;12544;46.760;15.942;2024-03-23T01:45:33;10.90;99.90
24412;DHT22;12544;46.760;15.942;2024-03-23T01:47:59;10.90;99.90
24412;DHT22;12544;46.760;15.942;2024-03-23T01:53:47;10.80;99.90
24412;DHT22;12544;46.760;15.942;2024-03-23T01:56:12;10.80;99.90
24412;DHT22;12544;46.760;15.942;2024-03-23T01:58:38;10.80;99.90
24412;DHT22;12544;46.760;15.942;2024-03-23T02:01:04;10.80;99.90
24412;DHT22;12544;46.760;15.942;2024-03-23T02:03:29;10.70;99.90
24412;DHT22;12544;46.760;15.942;2024-03-23T02:05:56;10.70;99.90
24412;DHT22;12544;46.760;15.942;2024-03-23T02:08:23;10.60;99.90
24412;DHT22;12544;46.760;15.942;2024-03-23T02:10:49;10.70;99.90
24412;DHT22;12544;46.760;15.942;2024-03-23T02:13:17;10.60;99.90
24412;DHT22;12544;46.760;15.942;2024-03-23T02:15:43;10.50;99.90
24412;DHT22;12544;46.760;15.942;2024-03-23T02:18:10;10.60;99.90
24412;DHT22;12544;46.760;15.942;2024-03-23T02:20:36;10.50;99.90
24412;DHT22;12544;46.760;15.942;2024-03-23T02:23:03;10.50;99.90
24412;DHT22;12544;46.760;15.942;2024-03-23T02:25:31;10.50;99.90
24412;DHT22;12544;46.760;15.942;2024-03-23T02:27:56;10.40;99.90
24412;DHT22;12544;46.760;15.942;2024-03-23T02:30:24;10.40;99.90
24412;DHT22;12544;46.760;15.942;2024-03-23T02:32:50;10.50;99.90
24412;DHT22;12544;46.760;15.942;2024-03-23T02:35:15;10.50;99.90
24412;DHT22;12544;46.760;15.942;2024-03-23T02:37:41;10.40;99.90
24412;DHT22;12544;46.760;15.942;2024-03-23T02:40:07;10.20;99.90
24412;DHT22;12544;46.760;15.942;2024-03-23T02:42:32;10.20;99.90
24412;DHT22;12544;46.760;15.942;2024-03-23T02:44:59;10.20;99.90
24412;DHT22;12544;46.760;15.942;2024-03-23T02:47:25;10.10;99.90
24412;DHT22;12544;46.760;15.942;2024-03-23T02:49:50;10.00;99.90
24412;DHT22;12544;46.760;15.942;2024-03-23T02:52:16;9.90;99.90
24412;DHT22;12544;46.760;15.942;2024-03-23T02:54:41;9.80;99.90
24412;DHT22;12544;46.760;15.942;2024-03-23T02:57:11;9.70;99.90
24412;DHT22;12544;46.760;15.942;2024-03-23T02:59:36;9.60;99.90
24412;DHT22;12544;46.760;15.942;2024-03-23T03:02:02;9.50;99.90
24412;DHT22;12544;46.760;15.942;2024-03-23T03:04:30;9.40;99.90
24412;DHT22;12544;46.760;15.942;2024-03-23T03:06:56;9.50;99.90
24412;DHT22;12544;46.760;15.942;2024-03-23T03:09:21;9.70;99.90
24412;DHT22;12544;46.760;15.942;2024-03-23T03:11:47;9.80;99.90
24412;DHT22;12544;46.760;15.942;2024-03-23T03:14:13;9.90;99.90
24412;DHT22;12544;46.760;15.942;2024-03-23T03:16:38;9.90;99.90
24412;DHT22;12544;46.760;15.942;2024-03-23T03:19:04;9.90;99.90
24412;DHT22;12544;46.760;15.942;2024-03-23T03:21:30;9.80;99.90
24412;DHT22;12544;46.760;15.942;2024-03-23T03:23:56;9.70;99.90
24412;DHT22;12544;46.760;15.942;2024-03-23T03:26:22;9.70;99.90
24412;DHT22;12544;46.760;15.942;2024-03-23T03:28:48;9.60;99.90
24412;DHT22;12544;46.760;15.942;2024-03-23T03:31:18;9.50;99.90
24412;DHT22;12544;46.760;15.942;2024-03-23T03:33:44;9.40;99.90
24412;DHT22;12544;46.760;15.942;2024-03-23T03:36:10;9.30;99.90
24412;DHT22;12544;46.760;15.942;2024-03-23T03:38:36;9.30;99.90
24412;DHT22;12544;46.760;15.942;2024-03-23T03:41:02;9.40;99.90
24412;DHT22;12544;46.760;15.942;2024-03-23T03:43:28;9.40;99.90
24412;DHT22;12544;46.760;15.942;2024-03-23T03:45:55;9.20;99.90
24412;DHT22;12544;46.760;15.942;2024-03-23T03:48:22;9.00;99.90
24412;DHT22;12544;46.760;15.942;2024-03-23T03:50:47;8.80;99.90
24412;DHT22;12544;46.760;15.942;2024-03-23T03:53:13;8.60;99.90
24412;DHT22;12544;46.760;15.942;2024-03-23T03:55:39;8.50;99.90
24412;DHT22;12544;46.760;15.942;2024-03-23T04:01:26;8.40;99.90
24412;DHT22;12544;46.760;15.942;2024-03-23T04:03:52;8.40;99.90
24412;DHT22;12544;46.760;15.942;2024-03-23T04:06:21;8.50;99.90
24412;DHT22;12544;46.760;15.942;2024-03-23T04:08:46;8.40;99.90
24412;DHT22;12544;46.760;15.942;2024-03-23T04:11:12;8.40;99.90
24412;DHT22;12544;46.760;15.942;2024-03-23T04:13:38;8.40;99.90
24412;DHT22;12544;46.760;15.942;2024-03-23T04:16:04;8.30;99.90
24412;DHT22;12544;46.760;15.942;2024-03-23T04:18:29;8.20;99.90
24412;DHT22;12544;46.760;15.942;2024-03-23T04:20:55;8.00;99.90
24412;DHT22;12544;46.760;15.942;2024-03-23T04:23:20;7.90;99.90
24412;DHT22;12544;46.760;15.942;2024-03-23T04:25:46;7.80;99.90
24412;DHT22;12544;46.760;15.942;2024-03-23T04:28:12;7.70;99.90
24412;DHT22;12544;46.760;15.942;2024-03-23T04:30:37;7.60;99.90
24412;DHT22;12544;46.760;15.942;2024-03-23T04:33:03;7.40;99.90
24412;DHT22;12544;46.760;15.942;2024-03-23T04:35:30;7.30;99.90
24412;DHT22;12544;46.760;15.942;2024-03-23T04:37:56;7.20;99.90
24412;DHT22;12544;46.760;15.942;2024-03-23T04:40:24;7.20;99.90
24412;DHT22;12544;46.760;15.942;2024-03-23T04:42:50;7.20;99.90
24412;DHT22;12544;46.760;15.942;2024-03-23T04:45:15;7.30;99.90
24412;DHT22;12544;46.760;15.942;2024-03-23T04:47:41;7.30;99.90
24412;DHT22;12544;46.760;15.942;2024-03-23T04:50:07;7.40;99.90
24412;DHT22;12544;46.760;15.942;2024-03-23T04:52:32;7.30;99.90
24412;DHT22;12544;46.760;15.942;2024-03-23T04:54:58;7.30;99.90
24412;DHT22;12544;46.760;15.942;2024-03-23T04:57:24;7.30;99.90
24412;DHT22;12544;46.760;15.942;2024-03-23T04:59:49;7.20;99.90
24412;DHT22;12544;46.760;15.942;2024-03-23T05:02:15;7.20;99.90
24412;DHT22;12544;46.760;15.942;2024-03-23T05:04:41;7.20;99.90
24412;DHT22;12544;46.760;15.942;2024-03-23T05:07:07;7.20;99.90
24412;DHT22;12544;46.760;15.942;2024-03-23T05:09:33;7.10;99.90
24412;DHT22;12544;46.760;15.942;2024-03-23T05:11:59;7.10;99.90
24412;DHT22;12544;46.760;15.942;2024-03-23T05:14:28;7.10;99.90
24412;DHT22;12544;46.760;15.942;2024-03-23T05:16:54;7.10;99.90
24412;DHT22;12544;46.760;15.942;2024-03-23T05:19:21;7.00;99.90
24412;DHT22;12544;46.760;15.942;2024-03-23T05:21:46;7.00;99.90
24412;DHT22;12544;46.760;15.942;2024-03-23T05:24:12;7.10;99.90
24412;DHT22;12544;46.760;15.942;2024-03-23T05:26:38;7.00;99.90
24412;DHT22;12544;46.760;15.942;2024-03-23T05:29:04;7.10;99.90
24412;DHT22;12544;46.760;15.942;2024-03-23T05:34:51;7.30;99.90
24412;DHT22;12544;46.760;15.942;2024-03-23T05:37:22;7.50;99.90
24412;DHT22;12544;46.760;15.942;2024-03-23T05:39:47;7.60;99.90
24412;DHT22;12544;46.760;15.942;2024-03-23T05:42:18;7.70;99.90
24412;DHT22;12544;46.760;15.942;2024-03-23T05:44:47;7.70;99.90
24412;DHT22;12544;46.760;15.942;2024-03-23T05:47:13;7.80;99.90
24412;DHT22;12544;46.760;15.942;2024-03-23T05:49:42;7.90;99.90
24412;DHT22;12544;46.760;15.942;2024-03-23T05:52:09;8.00;99.90
24412;DHT22;12544;46.760;15.942;2024-03-23T05:54:35;8.10;99.90
24412;DHT22;12544;46.760;15.942;2024-03-23T05:57:01;8.20;99.90
24412;DHT22;12544;46.760;15.942;2024-03-23T05:59:27;8.30;99.90
24412;DHT22;12544;46.760;15.942;2024-03-23T06:01:52;8.50;99.90
24412;DHT22;12544;46.760;15.942;2024-03-23T06:04:18;8.60;99.90
24412;DHT22;12544;46.760;15.942;2024-03-23T06:10:07;8.80;99.90
24412;DHT22;12544;46.760;15.942;2024-03-23T06:12:32;8.90;99.90
24412;DHT22;12544;46.760;15.942;2024-03-23T06:14:58;9.10;99.90
24412;DHT22;12544;46.760;15.942;2024-03-23T06:17:24;9.10;99.90
24412;DHT22;12544;46.760;15.942;2024-03-23T06:19:49;9.10;99.90
24412;DHT22;12544;46.760;15.942;2024-03-23T06:22:15;9.10;99.90
24412;DHT22;12544;46.760;15.942;2024-03-23T06:24:41;9.10;99.90
24412;DHT22;12544;46.760;15.942;2024-03-23T06:27:07;9.20;99.90
24412;DHT22;12544;46.760;15.942;2024-03-23T06:29:32;9.20;99.90
24412;DHT22;12544;46.760;15.942;2024-03-23T06:31:58;9.40;99.90
24412;DHT22;12544;46.760;15.942;2024-03-23T06:34:24;9.50;99.90
24412;DHT22;12544;46.760;15.942;2024-03-23T06:36:50;9.70;99.90
24412;DHT22;12544;46.760;15.942;2024-03-23T06:39:16;9.70;99.90
24412;DHT22;12544;46.760;15.942;2024-03-23T06:41:42;9.70;99.90
24412;DHT22;12544;46.760;15.942;2024-03-23T06:44:08;9.70;99.90
24412;DHT22;12544;46.760;15.942;2024-03-23T06:46:34;9.70;99.90
24412;DHT22;12544;46.760;15.942;2024-03-23T06:48:59;9.70;99.90
24412;DHT22;12544;46.760;15.942;2024-03-23T06:51:25;9.80;99.90
24412;DHT22;12544;46.760;15.942;2024-03-23T06:53:50;9.80;99.90
24412;DHT22;12544;46.760;15.942;2024-03-23T06:56:16;9.90;99.90
24412;DHT22;12544;46.760;15.942;2024-03-23T06:58:42;10.00;99.90
24412;DHT22;12544;46.760;15.942;2024-03-23T07:01:07;10.10;99.90
24412;DHT22;12544;46.760;15.942;2024-03-23T07:03:33;10.20;99.90
24412;DHT22;12544;46.760;15.942;2024-03-23T07:05:59;10.40;99.90
24412;DHT22;12544;46.760;15.942;2024-03-23T07:08:24;10.40;99.90
24412;DHT22;12544;46.760;15.942;2024-03-23T07:10:50;10.50;99.90
24412;DHT22;12544;46.760;15.942;2024-03-23T07:13:15;10.60;99.90
24412;DHT22;12544;46.760;15.942;2024-03-23T07:19:04;10.90;99.90
24412;DHT22;12544;46.760;15.942;2024-03-23T07:21:30;10.90;99.90
24412;DHT22;12544;46.760;15.942;2024-03-23T07:23:55;11.00;99.90
24412;DHT22;12544;46.760;15.942;2024-03-23T07:26:21;11.20;99.90
24412;DHT22;12544;46.760;15.942;2024-03-23T07:28:46;11.30;99.90
24412;DHT22;12544;46.760;15.942;2024-03-23T07:34:34;11.80;99.90
24412;DHT22;12544;46.760;15.942;2024-03-23T07:37:00;11.90;99.90
24412;DHT22;12544;46.760;15.942;2024-03-23T07:39:25;12.10;99.90
24412;DHT22;12544;46.760;15.942;2024-03-23T07:41:53;12.20;99.90
24412;DHT22;12544;46.760;15.942;2024-03-23T07:44:18;12.40;99.90
24412;DHT22;12544;46.760;15.942;2024-03-23T07:46:44;12.50;99.90
24412;DHT22;12544;46.760;15.942;2024-03-23T07:49:09;12.60;99.90
24412;DHT22;12544;46.760;15.942;2024-03-23T07:51:35;12.60;99.90
24412;DHT22;12544;46.760;15.942;2024-03-23T07:54:01;12.50;99.90
24412;DHT22;12544;46.760;15.942;2024-03-23T07:56:26;12.60;99.90
24412;DHT22;12544;46.760;15.942;2024-03-23T07:58:52;12.70;99.90
24412;DHT22;12544;46.760;15.942;2024-03-23T08:01:17;12.80;99.90
24412;DHT22;12544;46.760;15.942;2024-03-23T08:03:44;12.80;99.90
24412;DHT22;12544;46.760;15.942;2024-03-23T08:06:17;13.00;99.90
24412;DHT22;12544;46.760;15.942;2024-03-23T08:08:46;13.00;99.90
24412;DHT22;12544;46.760;15.942;2024-03-23T08:11:12;13.10;99.90
24412;DHT22;12544;46.760;15.942;2024-03-23T08:13:42;13.10;99.90
24412;DHT22;12544;46.760;15.942;2024-03-23T08:16:08;13.10;99.90
24412;DHT22;12544;46.760;15.942;2024-03-23T08:18:37;13.10;99.90
24412;DHT22;12544;46.760;15.942;2024-03-23T08:21:04;13.20;99.90
24412;DHT22;12544;46.760;15.942;2024-03-23T08:23:32;13.10;99.90
24412;DHT22;12544;46.760;15.942;2024-03-23T08:26:06;13.10;99.90
24412;DHT22;12544;46.760;15.942;2024-03-23T08:28:32;13.10;99.90
24412;DHT22;12544;46.760;15.942;2024-03-23T08:34:19;13.30;99.90
24412;DHT22;12544;46.760;15.942;2024-03-23T08:36:45;13.30;99.90
24412;DHT22;12544;46.760;15.942;2024-03-23T08:39:11;13.30;99.90
24412;DHT22;12544;46.760;15.942;2024-03-23T08:41:37;13.40;99.90
24412;DHT22;12544;46.760;15.942;2024-03-23T08:44:02;13.50;99.90
24412;DHT22;12544;46.760;15.942;2024-03-23T08:46:28;13.50;99.90
24412;DHT22;12544;46.760;15.942;2024-03-23T08:48:54;13.50;99.90
24412;DHT22;12544;46.760;15.942;2024-03-23T08:51:19;13.60;99.90
24412;DHT22;12544;46.760;15.942;2024-03-23T08:53:45;13.70;99.90
24412;DHT22;12544;46.760;15.942;2024-03-23T08:59:33;13.90;99.90
24412;DHT22;12544;46.760;15.942;2024-03-23T09:01:58;13.80;99.90
24412;DHT22;12544;46.760;15.942;2024-03-23T09:04:24;13.90;99.90
24412;DHT22;12544;46.760;15.942;2024-03-23T09:06:50;14.00;99.90
24412;DHT22;12544;46.760;15.942;2024-03-23T09:09:16;14.10;99.90
24412;DHT22;12544;46.760;15.942;2024-03-23T09:11:42;14.10;99.90
24412;DHT22;12544;46.760;15.942;2024-03-23T09:14:07;14.10;99.90
24412;DHT22;12544;46.760;15.942;2024-03-23T09:16:34;14.30;99.90
24412;DHT22;12544;46.760;15.942;2024-03-23T09:19:00;14.40;99.90
24412;DHT22;12544;46.760;15.942;2024-03-23T09:21:26;14.40;99.90
24412;DHT22;12544;46.760;15.942;2024-03-23T09:23:52;14.40;99.90
24412;DHT22;12544;46.760;15.942;2024-03-23T09:26:17;14.40;99.90
24412;DHT22;12544;46.760;15.942;2024-03-23T09:28:43;14.50;99.90
24412;DHT22;12544;46.760;15.942;2024-03-23T09:31:09;14.50;99.90
24412;DHT22;12544;46.760;15.942;2024-03-23T09:33:40;14.50;99.90
24412;DHT22;12544;46.760;15.942;2024-03-23T09:39:27;14.60;99.90
24412;DHT22;12544;46.760;15.942;2024-03-23T09:41:56;14.80;99.90
24412;DHT22;12544;46.760;15.942;2024-03-23T09:44:23;14.80;99.90
24412;DHT22;12544;46.760;15.942;2024-03-23T09:46:50;15.00;99.90
24412;DHT22;12544;46.760;15.942;2024-03-23T09:49:16;15.00;99.90
24412;DHT22;12544;46.760;15.942;2024-03-23T09:51:42;15.10;99.90
24412;DHT22;12544;46.760;15.942;2024-03-23T09:54:08;14.90;99.90
24412;DHT22;12544;46.760;15.942;2024-03-23T09:56:34;14.70;99.90
24412;DHT22;12544;46.760;15.942;2024-03-23T09:59:03;14.90;99.90
24412;DHT22;12544;46.760;15.942;2024-03-23T10:01:32;15.00;99.90
24412;DHT22;12544;46.760;15.942;2024-03-23T10:03:57;15.20;99.90
24412;DHT22;12544;46.760;15.942;2024-03-23T10:06:23;15.60;99.90
24412;DHT22;12544;46.760;15.942;2024-03-23T10:08:52;15.70;99.90
24412;DHT22;12544;46.760;15.942;2024-03-23T10:11:20;15.70;99.90
24412;DHT22;12544;46.760;15.942;2024-03-23T10:13:47;15.90;99.90
24412;DHT22;12544;46.760;15.942;2024-03-23T10:16:21;16.10;99.90
24412;DHT22;12544;46.760;15.942;2024-03-23T10:18:47;16.50;99.90
24412;DHT22;12544;46.760;15.942;2024-03-23T10:21:14;16.90;99.90
24412;DHT22;12544;46.760;15.942;2024-03-23T10:23:43;17.40;98.50
24412;DHT22;12544;46.760;15.942;2024-03-23T10:26:20;17.70;98.00
24412;DHT22;12544;46.760;15.942;2024-03-23T10:29:01;18.00;97.40
24412;DHT22;12544;46.760;15.942;2024-03-23T10:31:33;17.90;96.40
24412;DHT22;12544;46.760;15.942;2024-03-23T10:33:59;17.90;96.60
24412;DHT22;12544;46.760;15.942;2024-03-23T10:36:26;18.00;98.10
24412;DHT22;12544;46.760;15.942;2024-03-23T10:38:53;18.20;98.40
24412;DHT22;12544;46.760;15.942;2024-03-23T10:41:19;18.30;97.30
24412;DHT22;12544;46.760;15.942;2024-03-23T10:43:46;18.40;97.60
24412;DHT22;12544;46.760;15.942;2024-03-23T10:46:12;18.60;98.10
24412;DHT22;12544;46.760;15.942;2024-03-23T10:48:38;18.60;97.60
24412;DHT22;12544;46.760;15.942;2024-03-23T10:51:07;18.60;98.30
24412;DHT22;12544;46.760;15.942;2024-03-23T10:53:33;18.90;98.70
24412;DHT22;12544;46.760;15.942;2024-03-23T10:55:59;19.00;98.80
24412;DHT22;12544;46.760;15.942;2024-03-23T10:58:40;19.00;98.00
24412;DHT22;12544;46.760;15.942;2024-03-23T11:01:06;19.10;98.30
24412;DHT22;12544;46.760;15.942;2024-03-23T11:03:36;19.40;99.10
24412;DHT22;12544;46.760;15.942;2024-03-23T11:06:04;19.40;97.40
24412;DHT22;12544;46.760;15.942;2024-03-23T11:08:31;19.60;98.30
24412;DHT22;12544;46.760;15.942;2024-03-23T11:11:20;19.60;96.30
24412;DHT22;12544;46.760;15.942;2024-03-23T11:13:54;19.80;94.30
24412;DHT22;12544;46.760;15.942;2024-03-23T11:16:24;20.00;95.20
24412;DHT22;12544;46.760;15.942;2024-03-23T11:18:51;20.00;95.20
24412;DHT22;12544;46.760;15.942;2024-03-23T11:24:21;20.00;95.10
24412;DHT22;12544;46.760;15.942;2024-03-23T11:26:50;20.10;92.60
24412;DHT22;12544;46.760;15.942;2024-03-23T11:29:17;20.30;91.20
24412;DHT22;12544;46.760;15.942;2024-03-23T11:31:49;20.50;91.40
24412;DHT22;12544;46.760;15.942;2024-03-23T11:34:18;20.60;90.30
24412;DHT22;12544;46.760;15.942;2024-03-23T11:36:45;20.80;90.30
24412;DHT22;12544;46.760;15.942;2024-03-23T11:41:51;21.20;88.50
24412;DHT22;12544;46.760;15.942;2024-03-23T11:44:22;21.50;88.70
24412;DHT22;12544;46.760;15.942;2024-03-23T11:46:48;21.80;85.30
24412;DHT22;12544;46.760;15.942;2024-03-23T11:51:48;22.20;82.20
24412;DHT22;12544;46.760;15.942;2024-03-23T11:54:14;22.10;82.30
24412;DHT22;12544;46.760;15.942;2024-03-23T11:56:40;22.00;83.20
24412;DHT22;12544;46.760;15.942;2024-03-23T11:59:06;21.70;85.70
24412;DHT22;12544;46.760;15.942;2024-03-23T12:01:33;21.50;82.20
24412;DHT22;12544;46.760;15.942;2024-03-23T12:03:58;21.20;83.70
24412;DHT22;12544;46.760;15.942;2024-03-23T12:06:24;21.10;85.50
24412;DHT22;12544;46.760;15.942;2024-03-23T12:08:51;21.20;85.50
24412;DHT22;12544;46.760;15.942;2024-03-23T12:11:17;21.30;86.00
24412;DHT22;12544;46.760;15.942;2024-03-23T12:13:44;21.50;86.60
24412;DHT22;12544;46.760;15.942;2024-03-23T12:18:46;21.50;84.90
24412;DHT22;12544;46.760;15.942;2024-03-23T12:21:12;21.40;84.70
24412;DHT22;12544;46.760;15.942;2024-03-23T12:23:41;21.40;86.00
24412;DHT22;12544;46.760;15.942;2024-03-23T12:26:07;21.60;83.60
24412;DHT22;12544;46.760;15.942;2024-03-23T12:28:33;21.70;78.50
24412;DHT22;12544;46.760;15.942;2024-03-23T12:31:03;21.50;78.20
24412;DHT22;12544;46.760;15.942;2024-03-23T12:33:29;21.70;78.60
24412;DHT22;12544;46.760;15.942;2024-03-23T12:35:54;21.80;76.60
24412;DHT22;12544;46.760;15.942;2024-03-23T12:38:20;21.90;80.40
24412;DHT22;12544;46.760;15.942;2024-03-23T12:40:49;21.70;77.60
24412;DHT22;12544;46.760;15.942;2024-03-23T12:43:16;21.40;77.30
24412;DHT22;12544;46.760;15.942;2024-03-23T12:45:46;21.40;78.50
24412;DHT22;12544;46.760;15.942;2024-03-23T12:48:11;21.60;78.60
24412;DHT22;12544;46.760;15.942;2024-03-23T12:50:37;21.60;76.80
24412;DHT22;12544;46.760;15.942;2024-03-23T12:53:03;21.40;78.60
24412;DHT22;12544;46.760;15.942;2024-03-23T12:55:29;21.30;78.00
24412;DHT22;12544;46.760;15.942;2024-03-23T12:57:54;21.20;77.60
24412;DHT22;12544;46.760;15.942;2024-03-23T13:00:21;21.10;76.80
24412;DHT22;12544;46.760;15.942;2024-03-23T13:02:46;21.00;77.80
24412;DHT22;12544;46.760;15.942;2024-03-23T13:05:12;21.10;77.80
24412;DHT22;12544;46.760;15.942;2024-03-23T13:07:38;21.20;77.90
24412;DHT22;12544;46.760;15.942;2024-03-23T13:10:04;21.20;79.00
24412;DHT22;12544;46.760;15.942;2024-03-23T13:12:31;21.20;77.40
24412;DHT22;12544;46.760;15.942;2024-03-23T13:14:56;21.20;78.50
24412;DHT22;12544;46.760;15.942;2024-03-23T13:17:22;21.30;77.30
24412;DHT22;12544;46.760;15.942;2024-03-23T13:19:47;21.30;78.50
24412;DHT22;12544;46.760;15.942;2024-03-23T13:22:13;21.40;78.30
24412;DHT22;12544;46.760;15.942;2024-03-23T13:24:39;21.40;78.80
24412;DHT22;12544;46.760;15.942;2024-03-23T13:27:05;21.50;76.30
24412;DHT22;12544;46.760;15.942;2024-03-23T13:29:34;21.40;76.50
24412;DHT22;12544;46.760;15.942;2024-03-23T13:32:38;21.40;76.40
24412;DHT22;12544;46.760;15.942;2024-03-23T13:35:04;21.40;74.90
24412;DHT22;12544;46.760;15.942;2024-03-23T13:37:31;21.40;75.30
24412;DHT22;12544;46.760;15.942;2024-03-23T13:39:57;21.30;75.00
24412;DHT22;12544;46.760;15.942;2024-03-23T13:42:23;21.30;77.20
24412;DHT22;12544;46.760;15.942;2024-03-23T13:45:13;21.30;75.80
24412;DHT22;12544;46.760;15.942;2024-03-23T13:47:38;21.50;75.50
24412;DHT22;12544;46.760;15.942;2024-03-23T13:50:04;21.70;76.10
24412;DHT22;12544;46.760;15.942;2024-03-23T13:52:30;21.80;74.40
24412;DHT22;12544;46.760;15.942;2024-03-23T13:54:56;21.80;75.30
24412;DHT22;12544;46.760;15.942;2024-03-23T13:57:22;21.60;75.00
24412;DHT22;12544;46.760;15.942;2024-03-23T14:03:10;21.30;74.00
24412;DHT22;12544;46.760;15.942;2024-03-23T14:05:37;21.10;73.10
24412;DHT22;12544;46.760;15.942;2024-03-23T14:08:08;21.00;74.40
24412;DHT22;12544;46.760;15.942;2024-03-23T14:10:34;20.80;75.00
24412;DHT22;12544;46.760;15.942;2024-03-23T14:13:01;20.50;74.80
24412;DHT22;12544;46.760;15.942;2024-03-23T14:15:27;20.20;76.60
24412;DHT22;12544;46.760;15.942;2024-03-23T14:17:53;20.00;76.90
24412;DHT22;12544;46.760;15.942;2024-03-23T14:20:23;19.80;77.40
24412;DHT22;12544;46.760;15.942;2024-03-23T14:22:49;19.60;77.40
24412;DHT22;12544;46.760;15.942;2024-03-23T14:25:15;19.40;78.00
24412;DHT22;12544;46.760;15.942;2024-03-23T14:27:43;19.30;77.60
24412;DHT22;12544;46.760;15.942;2024-03-23T14:30:09;19.20;78.10
24412;DHT22;12544;46.760;15.942;2024-03-23T14:32:41;19.10;79.40
24412;DHT22;12544;46.760;15.942;2024-03-23T14:35:07;19.10;80.40
24412;DHT22;12544;46.760;15.942;2024-03-23T14:37:36;19.10;80.70
24412;DHT22;12544;46.760;15.942;2024-03-23T14:40:02;19.10;78.80
24412;DHT22;12544;46.760;15.942;2024-03-23T14:42:28;19.10;78.20
24412;DHT22;12544;46.760;15.942;2024-03-23T14:44:53;19.10;78.50
24412;DHT22;12544;46.760;15.942;2024-03-23T14:47:20;19.10;78.50
24412;DHT22;12544;46.760;15.942;2024-03-23T14:49:46;19.20;79.50
24412;DHT22;12544;46.760;15.942;2024-03-23T14:52:17;19.20;79.70
24412;DHT22;12544;46.760;15.942;2024-03-23T14:54:44;19.20;78.80
24412;DHT22;12544;46.760;15.942;2024-03-23T14:57:10;19.20;77.30
24412;DHT22;12544;46.760;15.942;2024-03-23T14:59:36;19.20;77.40
24412;DHT22;12544;46.760;15.942;2024-03-23T15:02:06;19.20;79.50
24412;DHT22;12544;46.760;15.942;2024-03-23T15:04:33;19.20;80.40
24412;DHT22;12544;46.760;15.942;2024-03-23T15:06:58;19.20;78.80
24412;DHT22;12544;46.760;15.942;2024-03-23T15:09:24;19.20;77.80
24412;DHT22;12544;46.760;15.942;2024-03-23T15:11:50;19.10;79.20
24412;DHT22;12544;46.760;15.942;2024-03-23T15:14:15;19.20;79.20
24412;DHT22;12544;46.760;15.942;2024-03-23T15:19:51;19.20;78.80
24412;DHT22;12544;46.760;15.942;2024-03-23T15:22:18;19.10;78.00
24412;DHT22;12544;46.760;15.942;2024-03-23T15:24:43;19.20;78.70
24412;DHT22;12544;46.760;15.942;2024-03-23T15:27:09;19.20;77.60
24412;DHT22;12544;46.760;15.942;2024-03-23T15:29:35;19.30;78.70
24412;DHT22;12544;46.760;15.942;2024-03-23T15:32:02;19.40;78.70
24412;DHT22;12544;46.760;15.942;2024-03-23T15:34:29;19.40;78.40
24412;DHT22;12544;46.760;15.942;2024-03-23T15:36:54;19.40;78.60
24412;DHT22;12544;46.760;15.942;2024-03-23T15:39:20;19.40;80.20
24412;DHT22;12544;46.760;15.942;2024-03-23T15:45:09;19.40;77.90
24412;DHT22;12544;46.760;15.942;2024-03-23T15:47:35;19.30;78.70
24412;DHT22;12544;46.760;15.942;2024-03-23T15:50:01;19.30;78.20
24412;DHT22;12544;46.760;15.942;2024-03-23T15:52:28;19.30;80.30
24412;DHT22;12544;46.760;15.942;2024-03-23T15:54:54;19.30;77.80
24412;DHT22;12544;46.760;15.942;2024-03-23T15:57:22;19.40;78.00
24412;DHT22;12544;46.760;15.942;2024-03-23T15:59:47;19.40;78.10
24412;DHT22;12544;46.760;15.942;2024-03-23T16:02:13;19.40;77.30
24412;DHT22;12544;46.760;15.942;2024-03-23T16:04:38;19.30;77.80
24412;DHT22;12544;46.760;15.942;2024-03-23T16:07:04;19.20;77.80
24412;DHT22;12544;46.760;15.942;2024-03-23T16:09:29;19.00;80.10
24412;DHT22;12544;46.760;15.942;2024-03-23T16:11:55;18.90;79.00
24412;DHT22;12544;46.760;15.942;2024-03-23T16:14:21;18.90;80.90
24412;DHT22;12544;46.760;15.942;2024-03-23T16:16:46;18.80;79.40
24412;DHT22;12544;46.760;15.942;2024-03-23T16:19:12;18.70;81.90
24412;DHT22;12544;46.760;15.942;2024-03-23T16:21:39;18.60;81.20
24412;DHT22;12544;46.760;15.942;2024-03-23T16:24:06;18.60;81.00
24412;DHT22;12544;46.760;15.942;2024-03-23T16:26:33;18.50;81.60
24412;DHT22;12544;46.760;15.942;2024-03-23T16:28:59;18.40;81.80
24412;DHT22;12544;46.760;15.942;2024-03-23T16:31:24;18.30;82.10
24412;DHT22;12544;46.760;15.942;2024-03-23T16:33:50;18.20;82.20
24412;DHT22;12544;46.760;15.942;2024-03-23T16:36:17;18.20;83.10
24412;DHT22;12544;46.760;15.942;2024-03-23T16:38:43;18.10;83.60
24412;DHT22;12544;46.760;15.942;2024-03-23T16:41:12;18.00;83.40
24412;DHT22;12544;46.760;15.942;2024-03-23T16:43:41;18.00;84.20
24412;DHT22;12544;46.760;15.942;2024-03-23T16:46:11;17.90;84.50
24412;DHT22;12544;46.760;15.942;2024-03-23T16:48:38;17.90;85.00
24412;DHT22;12544;46.760;15.942;2024-03-23T16:51:08;17.80;85.30
24412;DHT22;12544;46.760;15.942;2024-03-23T16:53:34;17.60;88.10
24412;DHT22;12544;46.760;15.942;2024-03-23T16:56:00;17.10;82.50
24412;DHT22;12544;46.760;15.942;2024-03-23T16:58:27;15.90;83.40
24412;DHT22;12544;46.760;15.942;2024-03-23T17:04:17;14.60;87.80
24412;DHT22;12544;46.760;15.942;2024-03-23T17:06:42;14.00;91.10